Friday, January 19, 2018, 1:53 AM GMT
Back to Local

CWVQ, Ste Anne De Bell 1

Location: , , Canada Lat: 45.433
Local Time: 1:53 AM GMT ( 1:53 GMT) Lon: -73.933
Time Zone: GMT Elev: 127 ft

Show me the last for .
Show Decoded

2018-01-19 01:00 METAR CWVQ 190100Z AUTO 23003KT M05/M07 RMK AO1 SOG 20 0000 SLP133 T10451067 =
2018-01-19 00:00 METAR CWVQ 190000Z AUTO 25005KT M05/M07 RMK AO1 SOG 20 3002 SLP135 T10541070 =
2018-01-18 23:00 METAR CWVQ 182300Z AUTO 24005KT M04/M06 RMK AO1 SOG 20 0002 SLP132 T10441062 =
2018-01-18 22:00 METAR CWVQ 182200Z AUTO 24007KT M04/M06 RMK AO1 SOG 20 1004 SLP133 T10421062 =
2018-01-18 21:00 METAR CWVQ 182100Z AUTO 24010G15KT M04/M06 RMK AO1 SOG 20 3003 SLP133 T10401062
                 =
2018-01-18 20:00 METAR CWVQ 182000Z AUTO 24009KT M04/M06 RMK AO1 SOG 20 5004 SLP130 T10381060 =
2018-01-18 19:00 METAR CWVQ 181900Z AUTO 24007KT M04/M06 RMK AO1 SOG 20 6009 SLP129 T10361058 =
2018-01-18 18:00 METAR CWVQ 181800Z AUTO 25009G16KT M04/M06 RMK AO1 SOG 20 8011 SLP130 T10411064
                 =
2018-01-18 17:00 METAR CWVQ 181700Z AUTO 25008KT M04/M07 RMK AO1 SOG 20 8006 SLP134 T10351066 =
2018-01-18 16:00 METAR CWVQ 181600Z AUTO 24009KT M05/M07 RMK AO1 SOG 20 0000 SLP138 T10471066 =
2018-01-18 15:00 METAR CWVQ 181500Z AUTO 25009G15KT M05/M07 RMK AO1 SOG 20 2004 SLP141 T10491068
                 =
2018-01-18 14:00 METAR CWVQ 181400Z AUTO 25007KT M05/M07 RMK AO1 SOG 20 3004 SLP140 T10491069 =
2018-01-18 13:00 METAR CWVQ 181300Z AUTO 25008KT M05/M07 RMK AO1 SOG 20 3002 SLP138 T10501072 =
2018-01-18 12:00 METAR CWVQ 181200Z AUTO 25008KT M05/M07 RMK AO1 SOG 20 5006 SLP137 T10511073 =
2018-01-18 11:00 METAR CWVQ 181100Z AUTO 24009G15KT M05/M07 RMK AO1 SOG 21 6015 PK WND 22017/1011
                 SLP136 T10511072 =
2018-01-18 10:00 METAR CWVQ 181000Z AUTO 23008G15KT M05/M07 RMK AO1 SOG 20 8021 PK WND 20018/0920
                 SLP136 T10451072 =
2018-01-18 09:00 METAR CWVQ 180900Z AUTO 23009KT M06/M07 RMK AO1 SOG 21 8014 SLP144 T10561073 =
2018-01-18 08:00 METAR CWVQ 180800Z AUTO 23009KT M06/M07 RMK AO1 SOG 20 6013 SLP152 T10581074 =
2018-01-18 07:00 METAR CWVQ 180700Z AUTO 24011G16KT M06/M08 RMK AO1 SOG 21 6011 PK WND 25018/0640
                 SLP158 T10581079 =
2018-01-18 06:00 METAR CWVQ 180600Z AUTO 24011G18KT M06/M08 RMK AO1 SOG 23 8016 PK WND 22020/0509
                 SLP158 T10581082 =
2018-01-18 05:00 METAR CWVQ 180500Z AUTO 24011G17KT M06/M08 RMK AO1 SOG 21 6019 PK WND 25017/0451
                 SLP165 T10581083 =
2018-01-18 04:00 METAR CWVQ 180400Z AUTO 23008KT M07/M08 RMK AO1 SOG 22 6024 PK WND 23019/0302
                 SLP169 T10661084 =
2018-01-18 03:00 METAR CWVQ 180300Z AUTO 22010G18KT M06/M09 RMK AO1 SOG 22 6030 PK WND 25018/0254
                 SLP174 T10641088 =
2018-01-18 02:00 METAR CWVQ 180200Z AUTO 22008G15KT M07/M09 RMK AO1 SOG 22 8024 SLP184 T10661092
                 =

Support USWX by starting your Amazon purchase here.